createdAt,value
2022-09-03T00:01:50.909Z,1.52
2022-09-03T00:06:07.780Z,1.80
2022-09-03T00:10:19.613Z,1.48
2022-09-03T00:14:58.158Z,1.88
2022-09-03T00:19:03.206Z,1.90
2022-09-03T00:23:07.511Z,1.80
2022-09-03T00:27:16.329Z,1.30
2022-09-03T00:31:22.077Z,1.75
2022-09-03T00:35:37.659Z,1.73
2022-09-03T00:39:39.384Z,1.50
2022-09-03T00:43:56.255Z,1.90
2022-09-03T00:48:10.352Z,1.80
2022-09-03T00:52:40.180Z,1.52
2022-09-03T00:56:59.408Z,1.52
2022-09-03T01:01:10.710Z,1.70
2022-09-03T01:05:41.130Z,1.55
2022-09-03T01:10:06.075Z,1.55
2022-09-03T01:14:30.585Z,1.65
2022-09-03T01:18:53.084Z,1.40
2022-09-03T01:23:09.760Z,1.77
2022-09-03T01:27:43.955Z,1.45
2022-09-03T01:32:11.941Z,1.50
2022-09-03T01:36:44.255Z,1.40
2022-09-03T01:41:29.306Z,1.45
2022-09-03T01:45:51.049Z,1.90
2022-09-03T01:50:05.042Z,1.50
2022-09-03T01:54:21.153Z,1.42
2022-09-03T01:58:32.333Z,1.80
2022-09-03T02:02:35.501Z,1.95
2022-09-03T02:06:37.970Z,1.55
2022-09-03T02:10:47.821Z,1.60
2022-09-03T02:14:49.558Z,1.77
2022-09-03T02:18:56.143Z,1.88
2022-09-03T02:22:59.081Z,1.90
2022-09-03T02:27:00.934Z,1.80
2022-09-03T02:31:02.948Z,1.73
2022-09-03T02:35:04.933Z,1.65
2022-09-03T02:39:06.917Z,1.52
2022-09-03T02:43:14.722Z,1.85
2022-09-03T02:47:16.360Z,1.45
2022-09-03T02:51:17.954Z,1.83
2022-09-03T02:55:20.358Z,1.40
2022-09-03T02:59:22.773Z,1.70
2022-09-03T03:03:25.006Z,2.17
2022-09-03T03:07:30.118Z,1.60
2022-09-03T03:11:31.963Z,1.65
2022-09-03T03:15:33.662Z,1.75
2022-09-03T03:19:35.342Z,2.45
2022-09-03T03:23:38.721Z,1.92
2022-09-03T03:27:41.822Z,1.48
2022-09-03T03:31:44.021Z,1.60
2022-09-03T03:35:45.730Z,1.40
2022-09-03T03:39:47.457Z,2.08
2022-09-03T03:43:54.955Z,1.80
2022-09-03T03:47:59.516Z,1.83
2022-09-03T03:52:03.199Z,1.75
2022-09-03T03:56:10.233Z,1.75
2022-09-03T04:00:12.545Z,1.40
2022-09-03T04:04:17.227Z,1.33
2022-09-03T04:08:18.864Z,1.80
2022-09-03T04:12:20.556Z,1.60
2022-09-03T04:16:25.740Z,1.70
2022-09-03T04:20:27.378Z,1.70
2022-09-03T04:24:29.023Z,1.67
2022-09-03T04:28:30.971Z,2.08
2022-09-03T04:32:50.860Z,1.65
2022-09-03T04:36:54.437Z,1.98
2022-09-03T04:40:56.139Z,1.75
2022-09-03T04:44:57.824Z,1.90
2022-09-03T04:48:59.770Z,1.85
2022-09-03T04:53:07.568Z,1.75
2022-09-03T04:57:10.450Z,1.67
2022-09-03T05:01:17.509Z,1.60
2022-09-03T05:05:19.816Z,1.95
2022-09-03T05:09:21.798Z,1.80
2022-09-03T05:13:23.467Z,1.55
2022-09-03T05:17:25.310Z,2.20
2022-09-03T05:21:28.921Z,1.67
2022-09-03T05:25:33.810Z,2.35
2022-09-03T05:29:35.414Z,1.80
2022-09-03T05:33:59.007Z,2.08
2022-09-03T05:38:00.842Z,2.05
2022-09-03T05:42:02.613Z,2.00
2022-09-03T05:46:09.845Z,2.08
2022-09-03T05:50:11.490Z,1.50
2022-09-03T05:54:13.147Z,1.52
2022-09-03T05:58:16.129Z,1.65
2022-09-03T06:02:19.839Z,1.55
2022-09-03T06:06:28.504Z,1.58
2022-09-03T06:10:40.245Z,1.73
2022-09-03T06:14:42.569Z,1.80
2022-09-03T06:18:44.290Z,1.85
2022-09-03T06:22:52.924Z,1.88
2022-09-03T06:26:54.637Z,1.73
2022-09-03T06:30:59.115Z,1.35
2022-09-03T06:35:00.709Z,1.90
2022-09-03T06:39:02.380Z,1.98
2022-09-03T06:43:04.468Z,1.65
2022-09-03T06:47:06.126Z,1.67
2022-09-03T06:51:13.528Z,1.40
2022-09-03T06:55:15.394Z,1.73
2022-09-03T06:59:17.065Z,1.40
2022-09-03T07:03:21.264Z,1.33
2022-09-03T07:07:22.877Z,1.52
2022-09-03T07:11:26.994Z,2.00
2022-09-03T07:15:28.613Z,1.58
2022-09-03T07:19:30.197Z,1.27
2022-09-03T07:23:33.097Z,1.40
2022-09-03T07:27:35.475Z,1.60
2022-09-03T07:31:40.031Z,1.75
2022-09-03T07:35:41.929Z,1.50
2022-09-03T07:39:43.906Z,1.33
2022-09-03T07:43:47.170Z,1.33
2022-09-03T07:47:49.958Z,1.48
2022-09-03T07:51:54.231Z,1.23
2022-09-03T07:56:10.857Z,1.70
2022-09-03T08:00:13.366Z,1.40
2022-09-03T08:04:14.987Z,1.48
2022-09-03T08:08:17.895Z,1.35
2022-09-03T08:12:19.617Z,1.85
2022-09-03T08:16:21.338Z,1.55
2022-09-03T08:20:23.087Z,1.77
2022-09-03T08:24:26.331Z,1.40
2022-09-03T08:28:28.107Z,1.33
2022-09-03T08:32:29.961Z,1.38
2022-09-03T08:36:33.871Z,1.70
2022-09-03T08:40:38.278Z,1.42
2022-09-03T08:44:40.052Z,1.85
2022-09-03T08:48:41.631Z,1.65
2022-09-03T08:52:53.250Z,1.52
2022-09-03T08:57:00.103Z,1.58
2022-09-03T09:01:06.825Z,1.60
2022-09-03T09:05:24.878Z,1.20
2022-09-03T09:09:42.508Z,1.58
2022-09-03T09:13:44.064Z,1.30
2022-09-03T09:17:48.724Z,1.90
2022-09-03T09:21:59.129Z,1.60
2022-09-03T09:26:10.017Z,1.20
2022-09-03T09:30:16.869Z,1.63
2022-09-03T09:34:19.005Z,2.03
2022-09-03T09:38:33.289Z,1.50
2022-09-03T09:42:35.010Z,1.40
2022-09-03T09:46:39.648Z,1.75
2022-09-03T09:50:41.433Z,1.50
2022-09-03T09:54:48.014Z,1.10
2022-09-03T09:58:49.760Z,1.60
2022-09-03T10:02:57.050Z,1.25
2022-09-03T10:07:22.892Z,1.15
2022-09-03T10:11:25.676Z,1.90
2022-09-03T10:15:49.267Z,1.70
2022-09-03T10:20:27.909Z,1.30
2022-09-03T10:24:39.651Z,1.90
2022-09-03T10:28:42.852Z,1.50
2022-09-03T10:32:51.622Z,1.60
2022-09-03T10:36:56.402Z,1.48
2022-09-03T10:41:30.063Z,1.77
2022-09-03T10:46:13.601Z,1.80
2022-09-03T10:50:17.429Z,1.13
2022-09-03T10:54:20.747Z,1.63
2022-09-03T10:58:46.688Z,1.50
2022-09-03T11:03:12.594Z,1.50
2022-09-03T11:07:17.260Z,1.75
2022-09-03T11:11:26.622Z,1.83
2022-09-03T11:15:36.741Z,1.67
2022-09-03T11:19:47.654Z,1.40
2022-09-03T11:24:02.649Z,1.50
2022-09-03T11:28:33.390Z,1.17
2022-09-03T11:32:46.817Z,1.35
2022-09-03T11:36:48.481Z,1.73
2022-09-03T11:40:59.288Z,1.02
2022-09-03T11:45:14.795Z,1.48
2022-09-03T11:49:28.374Z,1.10
2022-09-03T11:53:36.819Z,1.50
2022-09-03T11:57:43.741Z,1.48
2022-09-03T12:02:02.259Z,1.30
2022-09-03T12:06:07.116Z,0.98
2022-09-03T12:10:51.618Z,1.48
2022-09-03T12:15:23.914Z,1.48
2022-09-03T12:20:01.218Z,1.13
2022-09-03T12:24:03.095Z,1.27
2022-09-03T12:28:13.134Z,1.25
2022-09-03T12:32:16.145Z,1.00
2022-09-03T12:36:18.177Z,1.27
2022-09-03T12:40:22.936Z,1.25
2022-09-03T12:44:31.330Z,1.10
2022-09-03T12:48:33.093Z,1.35
2022-09-03T12:52:55.190Z,1.38
2022-09-03T12:56:59.634Z,1.20
2022-09-03T13:01:33.567Z,1.60
2022-09-03T13:05:46.928Z,1.48
2022-09-03T13:09:49.137Z,1.58
2022-09-03T13:14:12.198Z,1.52
2022-09-03T13:18:33.817Z,1.33
2022-09-03T13:22:41.527Z,1.70
2022-09-03T13:27:17.874Z,1.38
2022-09-03T13:31:43.714Z,1.20
2022-09-03T13:35:54.993Z,1.33
2022-09-03T13:40:18.708Z,1.17
2022-09-03T13:44:35.774Z,1.48
2022-09-03T13:48:59.262Z,1.77
2022-09-03T13:53:32.367Z,1.25
2022-09-03T13:57:53.265Z,1.13
2022-09-03T14:02:07.774Z,1.48
2022-09-03T14:06:38.637Z,1.27
2022-09-03T14:11:02.086Z,1.33
2022-09-03T14:15:19.049Z,1.40
2022-09-03T14:19:39.265Z,1.63
2022-09-03T14:23:46.781Z,1.75
2022-09-03T14:27:50.364Z,1.40
2022-09-03T14:32:16.562Z,1.08
2022-09-03T14:36:18.125Z,1.38
2022-09-03T14:40:26.506Z,1.15
2022-09-03T14:44:36.101Z,0.95
2022-09-03T14:48:40.781Z,1.35
2022-09-03T14:53:12.021Z,1.00
2022-09-03T14:57:22.549Z,1.23
2022-09-03T15:01:37.613Z,1.50
2022-09-03T15:05:48.864Z,1.50
2022-09-03T15:10:28.857Z,1.00
2022-09-03T15:14:40.095Z,1.15
2022-09-03T15:19:01.857Z,1.20
2022-09-03T15:23:11.875Z,1.08
2022-09-03T15:27:32.414Z,1.33
2022-09-03T15:32:04.936Z,1.30
2022-09-03T15:36:17.679Z,1.13
2022-09-03T15:40:22.363Z,1.67
2022-09-03T15:44:26.006Z,1.23
2022-09-03T15:48:45.291Z,1.20
2022-09-03T15:53:25.458Z,0.93
2022-09-03T15:57:54.798Z,1.20
2022-09-03T16:02:08.338Z,1.48
2022-09-03T16:06:28.131Z,1.38
2022-09-03T16:10:42.648Z,1.63
2022-09-03T16:15:12.601Z,1.42
2022-09-03T16:19:36.594Z,1.70
2022-09-03T16:23:56.479Z,1.58
2022-09-03T16:28:11.441Z,1.67
2022-09-03T16:32:42.161Z,1.27
2022-09-03T16:36:49.236Z,1.65
2022-09-03T16:40:56.217Z,2.10
2022-09-03T16:45:29.807Z,1.77
2022-09-03T16:49:55.948Z,1.90
2022-09-03T16:54:15.600Z,1.80
2022-09-03T16:58:36.018Z,1.83
2022-09-03T17:03:05.270Z,2.63
2022-09-03T17:07:33.303Z,1.88
2022-09-03T17:11:56.239Z,2.00
2022-09-03T17:16:25.020Z,1.85
2022-09-03T17:20:29.778Z,1.80
2022-09-03T17:24:39.890Z,2.80
2022-09-03T17:29:00.175Z,2.00
2022-09-03T17:33:04.424Z,2.00
2022-09-03T17:37:44.814Z,1.77
2022-09-03T17:41:48.201Z,2.42
2022-09-03T17:46:08.569Z,3.58
2022-09-03T17:50:27.780Z,3.97
2022-09-03T17:54:32.359Z,2.97
2022-09-03T17:58:51.924Z,3.72
2022-09-03T18:03:23.591Z,3.33
2022-09-03T18:07:41.645Z,2.78
2022-09-03T18:12:20.541Z,2.42
2022-09-03T18:16:31.853Z,2.13
2022-09-03T18:21:22.367Z,2.38
2022-09-03T18:25:47.209Z,3.35
2022-09-03T18:30:12.857Z,3.08
2022-09-03T18:34:33.009Z,3.45
2022-09-03T18:38:56.307Z,2.70
2022-09-03T18:43:31.792Z,2.60
2022-09-03T18:48:21.254Z,2.60
2022-09-03T18:53:13.595Z,2.17
2022-09-03T18:58:06.183Z,2.60
2022-09-03T19:02:51.762Z,2.45
2022-09-03T19:07:27.593Z,2.45
2022-09-03T19:11:55.491Z,1.73
2022-09-03T19:16:31.791Z,2.17
2022-09-03T19:20:54.716Z,2.00
2022-09-03T19:25:30.945Z,1.80
2022-09-03T19:30:20.419Z,1.65
2022-09-03T19:34:56.981Z,1.95
2022-09-03T19:39:25.006Z,1.65
2022-09-03T19:44:01.773Z,1.63
2022-09-03T19:48:59.510Z,2.00
2022-09-03T19:53:28.426Z,1.70
2022-09-03T19:57:50.109Z,2.53
2022-09-03T20:02:11.312Z,2.22
2022-09-03T20:06:32.494Z,2.00
2022-09-03T20:10:36.091Z,2.00
2022-09-03T20:14:37.814Z,1.83
2022-09-03T20:18:57.394Z,1.98
2022-09-03T20:23:16.709Z,2.20
2022-09-03T20:27:33.397Z,2.38
2022-09-03T20:31:53.971Z,2.60
2022-09-03T20:36:24.034Z,2.30
2022-09-03T20:40:53.912Z,2.10
2022-09-03T20:44:58.635Z,2.35
2022-09-03T20:49:21.863Z,1.90
2022-09-03T20:53:33.955Z,2.60
2022-09-03T20:58:00.156Z,2.78
2022-09-03T21:02:53.385Z,2.83
2022-09-03T21:07:10.154Z,2.90
2022-09-03T21:11:19.121Z,3.00
2022-09-03T21:15:26.771Z,2.92
2022-09-03T21:19:46.314Z,3.03
2022-09-03T21:24:04.249Z,2.85
2022-09-03T21:28:14.849Z,3.30
2022-09-03T21:32:30.452Z,2.92
2022-09-03T21:36:35.114Z,3.10
2022-09-03T21:40:43.577Z,3.28
2022-09-03T21:44:58.208Z,3.10
2022-09-03T21:49:10.950Z,3.78
2022-09-03T21:53:19.875Z,4.07
2022-09-03T21:57:27.449Z,3.63
2022-09-03T22:01:55.037Z,3.67
2022-09-03T22:06:03.051Z,4.63
2022-09-03T22:10:33.782Z,5.05
2022-09-03T22:14:55.676Z,4.57
2022-09-03T22:18:58.495Z,5.10
2022-09-03T22:23:11.812Z,5.45
2022-09-03T22:28:00.710Z,5.40
2022-09-03T22:32:25.230Z,6.03
2022-09-03T22:36:38.007Z,5.70
2022-09-03T22:40:52.705Z,6.88
2022-09-03T22:45:00.349Z,6.55
2022-09-03T22:49:17.719Z,5.60
2022-09-03T22:53:45.998Z,5.47
2022-09-03T22:58:01.228Z,5.88
2022-09-03T23:02:13.011Z,6.57
2022-09-03T23:06:25.311Z,6.80
2022-09-03T23:10:33.989Z,6.88
2022-09-03T23:14:51.481Z,6.82
2022-09-03T23:18:54.139Z,7.75
2022-09-03T23:23:20.154Z,7.10
2022-09-03T23:27:42.253Z,7.22
2022-09-03T23:31:44.031Z,7.03
2022-09-03T23:35:58.279Z,7.85
2022-09-03T23:40:17.908Z,7.88
2022-09-03T23:44:36.963Z,7.05
2022-09-03T23:49:09.881Z,7.40
2022-09-03T23:53:28.357Z,7.82
2022-09-03T23:57:40.089Z,7.70
